Time;durP1;ratioP1;P1;durP2;ratioP2;P2;SDS_P1;SDS_P2;PMS_P1;PMS_P2;Temp;Humidity;BMP_temperature;BMP_pressure;BME280_temperature;BME280_humidity;BME280_pressure;Samples;Min_cycle;Max_cycle;Signal;HPM_P1;HPM_P2
2023/05/25 00:01:58;;;;;;;2.88;2.60;;;;;;;;;;4982571;28;20046;-41
2023/05/25 00:04:25;;;;;;;3.78;2.67;;;;;;;;;;4984204;28;20044;-44
2023/05/25 00:06:52;;;;;;;5.07;2.65;;;;;;;;;;4980101;28;20121;-42
2023/05/25 00:09:17;;;;;;;3.15;2.58;;;;;;;;;;5013975;28;20026;-45
2023/05/25 00:11:43;;;;;;;3.00;2.70;;;;;;;;;;4981862;28;20043;-40
2023/05/25 00:14:08;;;;;;;3.75;2.70;;;;;;;;;;4980710;28;20018;-40
2023/05/25 00:16:36;;;;;;;4.82;2.78;;;;;;;;;;4980335;28;20046;-46
2023/05/25 00:19:04;;;;;;;3.92;2.90;;;;;;;;;;4980611;28;20384;-42
2023/05/25 00:21:33;;;;;;;4.20;2.65;;;;;;;;;;4980820;28;20058;-41
2023/05/25 00:23:58;;;;;;;3.42;2.83;;;;;;;;;;4983723;28;20117;-41
2023/05/25 00:26:24;;;;;;;3.30;2.72;;;;;;;;;;4982687;28;20125;-41
2023/05/25 00:28:50;;;;;;;5.13;2.70;;;;;;;;;;4985881;28;20476;-44
2023/05/25 00:31:15;;;;;;;3.75;3.25;;;;;;;;;;4978730;28;20120;-43
2023/05/25 00:33:40;;;;;;;4.07;2.85;;;;;;;;;;4980145;28;20033;-42
2023/05/25 00:36:07;;;;;;;6.93;3.33;;;;;;;;;;4983113;28;20035;-41
2023/05/25 00:38:33;;;;;;;3.53;3.05;;;;;;;;;;4983133;28;20109;-41
2023/05/25 00:40:58;;;;;;;4.68;2.80;;;;;;;;;;4978726;28;20031;-44
2023/05/25 00:43:23;;;;;;;4.93;2.50;;;;;;;;;;4982941;28;20060;-48
2023/05/25 00:45:52;;;;;;;3.45;2.85;;;;;;;;;;4981666;28;20090;-42
2023/05/25 00:48:18;;;;;;;3.22;2.90;;;;;;;;;;4982545;28;22500;-40
2023/05/25 00:50:44;;;;;;;6.55;2.90;;;;;;;;;;4983409;28;20051;-42
2023/05/25 00:53:11;;;;;;;4.10;2.85;;;;;;;;;;4981333;28;20026;-44
2023/05/25 00:55:44;;;;;;;6.45;2.88;;;;;;;;;;4984364;28;20085;-40
2023/05/25 00:58:12;;;;;;;5.05;2.72;;;;;;;;;;4980205;28;20026;-47
2023/05/25 01:00:41;;;;;;;5.35;3.08;;;;;;;;;;4982513;28;20631;-41
2023/05/25 01:03:11;;;;;;;3.03;2.72;;;;;;;;;;4978325;28;20122;-41
2023/05/25 01:05:41;;;;;;;3.90;2.75;;;;;;;;;;4980905;28;20031;-44
2023/05/25 01:08:08;;;;;;;6.05;2.65;;;;;;;;;;4978912;28;20838;-44
2023/05/25 01:10:36;;;;;;;3.72;2.92;;;;;;;;;;4983041;28;20050;-44
2023/05/25 01:13:03;;;;;;;6.40;2.78;;;;;;;;;;4983568;28;20089;-43
2023/05/25 01:15:32;;;;;;;5.97;2.90;;;;;;;;;;4983480;28;20490;-40
2023/05/25 01:17:58;;;;;;;3.15;2.80;;;;;;;;;;4984386;28;20437;-41
2023/05/25 01:20:28;;;;;;;3.22;2.97;;;;;;;;;;4980973;28;20038;-41
2023/05/25 01:22:58;;;;;;;5.05;2.60;;;;;;;;;;4984631;28;20038;-41
2023/05/25 01:25:34;;;;;;;3.58;3.20;;;;;;;;;;4986859;28;20407;-41
2023/05/25 01:28:10;;;;;;;3.40;2.45;;;;;;;;;;4989239;28;20033;-45
2023/05/25 01:30:38;;;;;;;3.03;2.72;;;;;;;;;;4983438;28;20034;-41
2023/05/25 01:33:06;;;;;;;6.03;2.78;;;;;;;;;;4984960;28;20407;-45
2023/05/25 01:35:32;;;;;;;6.43;2.60;;;;;;;;;;4984891;28;20022;-41
2023/05/25 01:37:58;;;;;;;4.30;2.70;;;;;;;;;;4981030;28;20018;-46
2023/05/25 01:40:23;;;;;;;6.35;2.92;;;;;;;;;;4983137;28;20041;-41
2023/05/25 01:42:49;;;;;;;3.78;2.90;;;;;;;;;;4983102;28;20046;-41
2023/05/25 01:45:15;;;;;;;2.97;2.58;;;;;;;;;;4985965;28;20042;-43
2023/05/25 01:47:47;;;;;;;4.55;2.92;;;;;;;;;;4985043;28;20125;-40
2023/05/25 01:50:22;;;;;;;5.30;2.83;;;;;;;;;;4986606;28;20739;-41
2023/05/25 01:53:09;;;;;;;3.10;2.60;;;;;;;;;;4981390;28;20054;-41
2023/05/25 01:56:00;;;;;;;5.22;2.80;;;;;;;;;;4982594;28;20376;-39
2023/05/25 01:58:30;;;;;;;5.22;3.63;;;;;;;;;;4986520;28;20518;-41
2023/05/25 02:00:57;;;;;;;3.55;2.50;;;;;;;;;;4984907;28;20039;-40
2023/05/25 02:03:22;;;;;;;3.08;2.35;;;;;;;;;;4984100;28;20023;-43
2023/05/25 02:05:48;;;;;;;4.30;2.88;;;;;;;;;;4983286;28;20403;-40
2023/05/25 02:08:14;;;;;;;3.78;2.50;;;;;;;;;;4984929;28;20229;-41
2023/05/25 02:10:39;;;;;;;5.20;3.00;;;;;;;;;;4978271;28;20054;-40
2023/05/25 02:13:04;;;;;;;3.45;2.60;;;;;;;;;;4984913;28;20086;-41
2023/05/25 02:15:32;;;;;;;3.67;2.78;;;;;;;;;;4984663;28;20031;-42
2023/05/25 02:17:58;;;;;;;3.95;2.72;;;;;;;;;;4985897;28;20141;-41
2023/05/25 02:20:24;;;;;;;4.68;2.92;;;;;;;;;;4982712;28;20560;-40
2023/05/25 02:22:50;;;;;;;4.03;2.90;;;;;;;;;;4982507;28;20043;-41
2023/05/25 02:25:15;;;;;;;3.38;2.33;;;;;;;;;;4982765;28;20446;-46
2023/05/25 02:27:42;;;;;;;3.78;2.60;;;;;;;;;;4982436;28;20419;-44
2023/05/25 02:30:07;;;;;;;4.50;2.75;;;;;;;;;;4983162;28;20054;-41
2023/05/25 02:32:34;;;;;;;4.15;2.65;;;;;;;;;;4983490;28;20062;-43
2023/05/25 02:34:59;;;;;;;3.38;2.88;;;;;;;;;;4981558;28;20594;-44
2023/05/25 02:37:25;;;;;;;3.38;2.45;;;;;;;;;;4983168;28;20035;-44
2023/05/25 02:39:50;;;;;;;3.13;2.92;;;;;;;;;;4986264;28;20567;-41
2023/05/25 02:42:16;;;;;;;2.75;2.55;;;;;;;;;;4984078;28;20050;-40
2023/05/25 02:44:47;;;;;;;6.18;2.70;;;;;;;;;;4978957;28;20502;-41
2023/05/25 02:47:16;;;;;;;4.25;2.60;;;;;;;;;;4982319;28;20046;-43
2023/05/25 02:49:42;;;;;;;6.95;2.90;;;;;;;;;;4980802;28;20026;-41
2023/05/25 02:52:07;;;;;;;6.53;2.63;;;;;;;;;;4979387;28;20478;-44
2023/05/25 02:54:33;;;;;;;3.03;2.60;;;;;;;;;;4980920;28;20057;-44
2023/05/25 02:56:58;;;;;;;3.25;2.50;;;;;;;;;;4982673;28;20082;-40
2023/05/25 02:59:24;;;;;;;3.25;2.55;;;;;;;;;;4983659;28;20026;-42
2023/05/25 03:01:49;;;;;;;3.58;2.55;;;;;;;;;;4980468;28;20053;-40
2023/05/25 03:04:15;;;;;;;4.03;2.38;;;;;;;;;;4986348;28;20080;-45
2023/05/25 03:06:40;;;;;;;2.63;2.42;;;;;;;;;;4983385;28;20810;-43
2023/05/25 03:09:07;;;;;;;3.92;2.70;;;;;;;;;;4983052;28;20388;-43
2023/05/25 03:11:32;;;;;;;3.80;2.53;;;;;;;;;;4983416;28;20062;-43
2023/05/25 03:13:58;;;;;;;6.68;2.72;;;;;;;;;;4981982;28;20077;-41
2023/05/25 03:16:24;;;;;;;3.55;2.90;;;;;;;;;;4983170;28;20125;-42
2023/05/25 03:18:50;;;;;;;5.05;2.78;;;;;;;;;;4979508;28;20037;-44
2023/05/25 03:21:15;;;;;;;4.15;2.75;;;;;;;;;;4980513;28;20662;-46
2023/05/25 03:23:41;;;;;;;6.72;2.80;;;;;;;;;;4983728;28;20076;-41
2023/05/25 03:26:06;;;;;;;7.30;2.58;;;;;;;;;;4980808;28;20035;-40
2023/05/25 03:28:31;;;;;;;4.80;2.72;;;;;;;;;;4984719;28;20041;-40
2023/05/25 03:30:57;;;;;;;2.55;2.30;;;;;;;;;;4978465;28;20601;-41
2023/05/25 03:33:22;;;;;;;3.03;2.80;;;;;;;;;;4977564;28;20388;-41
2023/05/25 03:35:47;;;;;;;4.07;2.70;;;;;;;;;;4979094;28;20111;-43
2023/05/25 03:38:13;;;;;;;4.45;2.55;;;;;;;;;;4983705;28;20035;-40
2023/05/25 03:40:38;;;;;;;2.70;2.50;;;;;;;;;;4983436;28;20495;-42
2023/05/25 03:43:03;;;;;;;4.28;2.58;;;;;;;;;;4982073;28;20049;-41
2023/05/25 03:45:29;;;;;;;3.22;2.85;;;;;;;;;;4982522;28;20084;-41
2023/05/25 03:47:54;;;;;;;5.38;2.90;;;;;;;;;;4984735;28;20057;-45
2023/05/25 03:50:20;;;;;;;3.13;2.70;;;;;;;;;;4983274;28;20069;-39
2023/05/25 03:52:45;;;;;;;2.83;2.63;;;;;;;;;;4978474;28;20065;-43
2023/05/25 03:55:13;;;;;;;8.07;2.78;;;;;;;;;;4984267;28;20364;-41
2023/05/25 03:57:39;;;;;;;5.68;2.72;;;;;;;;;;4980127;28;20070;-41
2023/05/25 04:00:05;;;;;;;5.32;2.88;;;;;;;;;;4980531;28;20097;-48
2023/05/25 04:02:31;;;;;;;10.43;3.08;;;;;;;;;;4987203;28;20034;-40
2023/05/25 04:04:56;;;;;;;2.78;2.58;;;;;;;;;;4980137;28;20022;-42
2023/05/25 04:07:21;;;;;;;2.90;2.60;;;;;;;;;;4982055;28;20704;-43
2023/05/25 04:09:47;;;;;;;4.80;2.60;;;;;;;;;;4983483;28;20030;-41
2023/05/25 04:12:12;;;;;;;4.25;2.97;;;;;;;;;;4980565;28;20035;-41
2023/05/25 04:14:37;;;;;;;4.82;3.00;;;;;;;;;;4979924;28;20022;-44
2023/05/25 04:17:03;;;;;;;4.50;2.78;;;;;;;;;;4983223;28;20108;-41
2023/05/25 04:19:28;;;;;;;3.90;2.75;;;;;;;;;;4982807;28;20030;-41
2023/05/25 04:21:54;;;;;;;4.70;2.72;;;;;;;;;;4981017;28;20046;-42
2023/05/25 04:24:20;;;;;;;3.42;2.90;;;;;;;;;;4980785;28;20023;-41
2023/05/25 04:26:46;;;;;;;3.53;3.08;;;;;;;;;;4979918;28;20498;-41
2023/05/25 04:29:13;;;;;;;3.88;2.80;;;;;;;;;;4981402;28;20031;-48
2023/05/25 04:31:39;;;;;;;9.95;3.30;;;;;;;;;;4981614;28;20500;-43
2023/05/25 04:34:04;;;;;;;8.63;3.28;;;;;;;;;;4982042;28;20109;-47
2023/05/25 04:36:32;;;;;;;6.60;3.20;;;;;;;;;;4979670;28;20491;-46
2023/05/25 04:39:01;;;;;;;4.65;3.28;;;;;;;;;;4983961;28;20081;-42
2023/05/25 04:41:28;;;;;;;4.22;2.90;;;;;;;;;;4979712;28;20082;-45
2023/05/25 04:43:54;;;;;;;7.70;3.03;;;;;;;;;;4982774;28;20041;-45
2023/05/25 04:46:19;;;;;;;5.65;3.38;;;;;;;;;;4985661;28;20121;-41
2023/05/25 04:48:45;;;;;;;5.00;3.40;;;;;;;;;;4987315;28;20026;-41
2023/05/25 04:51:11;;;;;;;9.02;3.40;;;;;;;;;;4983829;28;20050;-41
2023/05/25 04:53:36;;;;;;;8.32;3.72;;;;;;;;;;4986070;28;20038;-43
2023/05/25 04:56:02;;;;;;;9.65;3.60;;;;;;;;;;4984538;28;20049;-43
2023/05/25 04:58:31;;;;;;;6.57;3.03;;;;;;;;;;4987886;28;20113;-41
2023/05/25 05:00:57;;;;;;;6.82;3.45;;;;;;;;;;4985847;28;20039;-44
2023/05/25 05:03:22;;;;;;;4.50;3.30;;;;;;;;;;4988427;28;20151;-43
2023/05/25 05:05:48;;;;;;;5.85;3.97;;;;;;;;;;4985294;28;20484;-42
2023/05/25 05:08:14;;;;;;;10.70;3.55;;;;;;;;;;4982773;28;20080;-41
2023/05/25 05:10:39;;;;;;;5.57;3.95;;;;;;;;;;4982922;28;20625;-42
2023/05/25 05:13:05;;;;;;;4.35;3.13;;;;;;;;;;4980178;28;20023;-41
2023/05/25 05:15:30;;;;;;;5.60;3.25;;;;;;;;;;4986475;28;20030;-47
2023/05/25 05:17:56;;;;;;;8.05;4.38;;;;;;;;;;4987412;28;20397;-43
2023/05/25 05:20:21;;;;;;;14.45;4.57;;;;;;;;;;4984829;28;20038;-47
2023/05/25 05:22:47;;;;;;;4.70;3.85;;;;;;;;;;4981453;28;20046;-41
2023/05/25 05:25:13;;;;;;;4.18;3.67;;;;;;;;;;4984167;28;20041;-44
2023/05/25 05:27:39;;;;;;;3.58;3.28;;;;;;;;;;4987042;28;20042;-41
2023/05/25 05:30:05;;;;;;;4.95;3.60;;;;;;;;;;4982206;28;20395;-41
2023/05/25 05:32:30;;;;;;;6.03;3.60;;;;;;;;;;4987365;28;20049;-46
2023/05/25 05:34:55;;;;;;;8.43;4.38;;;;;;;;;;4985467;28;20038;-42
2023/05/25 05:37:21;;;;;;;10.00;3.85;;;;;;;;;;4987639;28;20038;-41
2023/05/25 05:39:46;;;;;;;9.55;3.80;;;;;;;;;;4983035;28;20034;-42
2023/05/25 05:42:11;;;;;;;4.35;3.67;;;;;;;;;;4991599;28;20046;-41
2023/05/25 05:44:37;;;;;;;14.88;4.72;;;;;;;;;;5018401;28;20038;-41
2023/05/25 05:47:02;;;;;;;3.60;3.30;;;;;;;;;;4985119;28;20060;-44
2023/05/25 05:49:29;;;;;;;7.40;4.00;;;;;;;;;;4987148;28;20113;-41
2023/05/25 05:51:54;;;;;;;5.53;3.92;;;;;;;;;;4984053;28;20046;-47
2023/05/25 05:54:20;;;;;;;7.90;3.55;;;;;;;;;;4983630;28;20026;-42
2023/05/25 05:56:45;;;;;;;4.80;3.72;;;;;;;;;;4979297;28;20038;-49
2023/05/25 05:59:11;;;;;;;9.38;3.90;;;;;;;;;;4984854;28;20026;-49
2023/05/25 06:01:37;;;;;;;5.88;3.90;;;;;;;;;;4986004;28;20049;-42
2023/05/25 06:04:04;;;;;;;9.20;3.90;;;;;;;;;;4987878;28;20384;-45
2023/05/25 06:06:32;;;;;;;8.25;4.00;;;;;;;;;;4983720;28;20487;-41
2023/05/25 06:08:57;;;;;;;7.00;4.50;;;;;;;;;;4985769;28;20065;-43
2023/05/25 06:11:23;;;;;;;6.80;3.83;;;;;;;;;;4982103;28;20061;-43
2023/05/25 06:13:48;;;;;;;10.38;3.90;;;;;;;;;;4983924;28;20130;-41
2023/05/25 06:16:13;;;;;;;5.45;3.70;;;;;;;;;;4986525;28;20050;-41
2023/05/25 06:18:39;;;;;;;12.57;4.45;;;;;;;;;;4981725;28;20476;-41
2023/05/25 06:21:05;;;;;;;14.60;5.40;;;;;;;;;;4983486;28;20408;-43
2023/05/25 06:23:31;;;;;;;9.43;4.72;;;;;;;;;;4980311;28;20045;-42
2023/05/25 06:25:56;;;;;;;6.10;3.95;;;;;;;;;;4984750;28;20043;-41
2023/05/25 06:28:21;;;;;;;10.32;5.38;;;;;;;;;;4983946;28;20034;-42
2023/05/25 06:30:47;;;;;;;10.77;6.13;;;;;;;;;;4982719;28;20073;-42
2023/05/25 06:33:12;;;;;;;19.50;7.05;;;;;;;;;;4985021;28;20694;-43
2023/05/25 06:35:37;;;;;;;5.75;4.70;;;;;;;;;;4984975;28;20475;-45
2023/05/25 06:38:03;;;;;;;8.48;4.28;;;;;;;;;;4983461;28;20185;-46
2023/05/25 06:40:28;;;;;;;10.15;4.43;;;;;;;;;;4981558;28;20412;-42
2023/05/25 06:42:54;;;;;;;5.63;4.20;;;;;;;;;;4983249;28;20038;-41
2023/05/25 06:45:19;;;;;;;8.38;4.50;;;;;;;;;;4984546;28;20060;-38
2023/05/25 06:47:44;;;;;;;10.38;4.30;;;;;;;;;;4986226;28;20113;-41
2023/05/25 06:50:11;;;;;;;5.00;4.20;;;;;;;;;;4985202;28;20035;-43
2023/05/25 06:52:36;;;;;;;7.63;4.43;;;;;;;;;;4982852;28;20047;-41
2023/05/25 06:55:02;;;;;;;8.70;4.93;;;;;;;;;;4978815;28;20030;-42
2023/05/25 06:57:28;;;;;;;9.57;5.28;;;;;;;;;;4984710;28;20043;-41
2023/05/25 06:59:53;;;;;;;9.93;4.78;;;;;;;;;;4986777;28;20056;-44
2023/05/25 07:02:19;;;;;;;7.13;4.90;;;;;;;;;;4986755;28;20128;-44
2023/05/25 07:04:45;;;;;;;11.80;4.95;;;;;;;;;;4987580;28;20038;-42
2023/05/25 07:07:12;;;;;;;9.10;4.82;;;;;;;;;;4984794;28;20185;-41
2023/05/25 07:09:38;;;;;;;9.05;4.82;;;;;;;;;;4982220;28;20411;-42
2023/05/25 07:12:06;;;;;;;9.75;4.68;;;;;;;;;;4985065;28;20043;-43
2023/05/25 07:14:33;;;;;;;10.13;4.38;;;;;;;;;;4980394;28;20052;-44
2023/05/25 07:16:58;;;;;;;5.78;4.43;;;;;;;;;;4981486;28;20046;-42
2023/05/25 07:19:24;;;;;;;6.53;4.03;;;;;;;;;;4987111;28;20113;-42
2023/05/25 07:21:49;;;;;;;7.43;4.20;;;;;;;;;;4982968;28;20133;-41
2023/05/25 07:24:14;;;;;;;8.35;3.95;;;;;;;;;;4982275;28;20480;-42
2023/05/25 07:26:40;;;;;;;7.55;3.90;;;;;;;;;;4983635;28;20551;-41
2023/05/25 07:29:05;;;;;;;11.68;3.75;;;;;;;;;;4980887;28;20610;-41
2023/05/25 07:31:31;;;;;;;8.98;4.07;;;;;;;;;;4983767;28;20096;-42
2023/05/25 07:33:56;;;;;;;6.78;3.85;;;;;;;;;;4986347;28;20042;-45
2023/05/25 07:36:23;;;;;;;5.18;3.22;;;;;;;;;;4985851;28;20112;-44
2023/05/25 07:38:48;;;;;;;11.32;3.08;;;;;;;;;;4978529;28;20026;-41
2023/05/25 07:41:14;;;;;;;6.65;3.45;;;;;;;;;;4974582;28;20043;-41
2023/05/25 07:43:39;;;;;;;7.30;3.08;;;;;;;;;;4983988;28;20048;-44
2023/05/25 07:46:05;;;;;;;7.05;3.33;;;;;;;;;;4987788;28;20411;-45
2023/05/25 07:48:31;;;;;;;6.65;3.28;;;;;;;;;;4982493;28;20113;-43
2023/05/25 07:50:56;;;;;;;6.68;3.08;;;;;;;;;;4981408;28;20054;-42
2023/05/25 07:53:22;;;;;;;9.13;3.35;;;;;;;;;;4982306;28;20030;-42
2023/05/25 07:55:47;;;;;;;4.78;3.13;;;;;;;;;;4984913;28;20038;-43
2023/05/25 07:58:13;;;;;;;6.90;3.33;;;;;;;;;;4985606;28;20026;-42
2023/05/25 08:00:38;;;;;;;6.30;3.50;;;;;;;;;;4984451;28;20711;-41
2023/05/25 08:03:03;;;;;;;14.20;4.35;;;;;;;;;;4986322;28;20121;-45
2023/05/25 08:05:29;;;;;;;7.38;4.22;;;;;;;;;;4981681;28;20570;-44
2023/05/25 08:07:54;;;;;;;8.35;4.32;;;;;;;;;;4982349;28;20069;-41
2023/05/25 08:10:20;;;;;;;8.65;5.00;;;;;;;;;;4983416;28;20050;-42
2023/05/25 08:12:45;;;;;;;7.68;4.35;;;;;;;;;;4983351;28;20034;-44
2023/05/25 08:15:12;;;;;;;10.32;5.05;;;;;;;;;;4981407;28;20061;-42
2023/05/25 08:17:38;;;;;;;8.02;4.55;;;;;;;;;;4981334;28;20517;-41
2023/05/25 08:20:07;;;;;;;13.73;4.88;;;;;;;;;;4985295;28;20030;-42
2023/05/25 08:22:32;;;;;;;11.95;4.97;;;;;;;;;;4982410;28;20442;-43
2023/05/25 08:24:58;;;;;;;9.50;5.18;;;;;;;;;;4981048;28;20026;-41
2023/05/25 08:27:23;;;;;;;6.38;5.57;;;;;;;;;;4982427;28;20038;-43
2023/05/25 08:29:48;;;;;;;6.80;5.90;;;;;;;;;;4979743;28;20109;-41
2023/05/25 08:32:14;;;;;;;10.38;6.13;;;;;;;;;;4977749;28;20054;-43
2023/05/25 08:34:39;;;;;;;11.30;6.75;;;;;;;;;;4985621;28;20022;-44
2023/05/25 08:37:05;;;;;;;7.68;6.28;;;;;;;;;;4985232;28;20066;-42
2023/05/25 08:39:30;;;;;;;11.45;6.20;;;;;;;;;;4981981;28;20030;-41
2023/05/25 08:41:55;;;;;;;8.50;6.40;;;;;;;;;;4981790;28;20061;-41
2023/05/25 08:44:21;;;;;;;10.52;6.00;;;;;;;;;;4985307;28;20608;-42
2023/05/25 08:46:50;;;;;;;9.50;6.40;;;;;;;;;;4981120;28;20058;-45
2023/05/25 08:49:15;;;;;;;9.43;6.05;;;;;;;;;;4979801;28;20065;-40
2023/05/25 08:51:48;;;;;;;11.45;6.55;;;;;;;;;;4982138;28;23587;-41
2023/05/25 08:54:17;;;;;;;13.00;6.55;;;;;;;;;;4981003;28;20022;-41
2023/05/25 08:56:53;;;;;;;6.85;5.95;;;;;;;;;;4983472;28;20031;-41
2023/05/25 08:59:48;;;;;;;8.38;5.72;;;;;;;;;;4984716;28;20042;-41
2023/05/25 09:02:49;;;;;;;9.70;6.22;;;;;;;;;;4983285;28;20546;-42
2023/05/25 09:05:15;;;;;;;10.93;5.25;;;;;;;;;;4982726;28;20453;-43
2023/05/25 09:07:42;;;;;;;5.97;5.38;;;;;;;;;;4982850;28;20043;-41
2023/05/25 09:10:10;;;;;;;7.78;4.90;;;;;;;;;;4983671;28;20057;-41
2023/05/25 09:12:36;;;;;;;5.50;4.10;;;;;;;;;;4980975;28;20034;-42
2023/05/25 09:15:02;;;;;;;7.35;4.47;;;;;;;;;;4983486;28;20027;-42
2023/05/25 09:17:27;;;;;;;6.90;4.47;;;;;;;;;;4982388;28;20043;-41
2023/05/25 09:19:53;;;;;;;3.95;3.55;;;;;;;;;;4984408;28;20115;-44
2023/05/25 09:22:19;;;;;;;6.32;4.10;;;;;;;;;;4983550;28;20047;-41
2023/05/25 09:24:45;;;;;;;5.55;3.90;;;;;;;;;;4982302;28;20023;-47
2023/05/25 09:27:19;;;;;;;7.68;3.80;;;;;;;;;;4979655;28;20038;-46
2023/05/25 09:29:48;;;;;;;4.60;3.28;;;;;;;;;;4983227;28;20080;-41
2023/05/25 09:32:14;;;;;;;4.63;2.70;;;;;;;;;;4984688;28;20042;-42
2023/05/25 09:34:42;;;;;;;4.82;2.60;;;;;;;;;;4986938;28;20407;-41
2023/05/25 09:37:12;;;;;;;3.30;3.00;;;;;;;;;;4987841;28;20946;-46
2023/05/25 09:39:41;;;;;;;3.75;2.53;;;;;;;;;;4986138;28;20124;-42
2023/05/25 09:42:07;;;;;;;4.68;2.78;;;;;;;;;;4986824;28;20086;-45
2023/05/25 09:44:32;;;;;;;2.90;2.28;;;;;;;;;;4984265;28;20525;-45
2023/05/25 09:46:58;;;;;;;2.20;2.00;;;;;;;;;;4979064;28;20148;-42
2023/05/25 09:49:23;;;;;;;2.45;2.25;;;;;;;;;;4986390;28;20038;-41
2023/05/25 09:51:49;;;;;;;2.33;2.13;;;;;;;;;;4979505;28;20046;-42
2023/05/25 09:54:15;;;;;;;3.17;1.85;;;;;;;;;;4984024;28;20034;-46
2023/05/25 09:56:40;;;;;;;2.08;1.98;;;;;;;;;;4981882;28;20219;-48
2023/05/25 09:59:06;;;;;;;7.28;2.42;;;;;;;;;;4985439;28;20058;-41
2023/05/25 10:01:33;;;;;;;4.25;2.28;;;;;;;;;;4984422;28;20050;-42
2023/05/25 10:04:00;;;;;;;5.95;2.17;;;;;;;;;;4985165;28;20046;-44
2023/05/25 10:06:26;;;;;;;2.15;1.92;;;;;;;;;;4983611;28;20030;-45
2023/05/25 10:08:53;;;;;;;3.38;2.05;;;;;;;;;;4986405;28;20386;-42
2023/05/25 10:11:20;;;;;;;3.22;2.08;;;;;;;;;;4986903;28;20803;-44
2023/05/25 10:13:46;;;;;;;6.25;2.05;;;;;;;;;;4982179;28;20060;-41
2023/05/25 10:16:17;;;;;;;5.18;2.10;;;;;;;;;;4986419;28;20038;-43
2023/05/25 10:18:50;;;;;;;3.92;2.15;;;;;;;;;;4981467;28;20037;-42
2023/05/25 10:21:18;;;;;;;5.45;2.22;;;;;;;;;;4977990;28;20178;-47
2023/05/25 10:23:49;;;;;;;3.55;2.08;;;;;;;;;;4981689;28;20395;-42
2023/05/25 10:26:21;;;;;;;1.90;1.70;;;;;;;;;;4977605;28;20050;-42
2023/05/25 10:28:50;;;;;;;2.92;1.98;;;;;;;;;;4983537;28;20026;-43
2023/05/25 10:31:17;;;;;;;2.22;1.70;;;;;;;;;;4983377;28;20043;-42
2023/05/25 10:33:43;;;;;;;2.22;1.90;;;;;;;;;;4985563;28;20469;-47
2023/05/25 10:36:09;;;;;;;1.90;1.80;;;;;;;;;;4985129;28;22605;-44
2023/05/25 10:38:38;;;;;;;1.90;1.77;;;;;;;;;;4979417;28;20394;-42
2023/05/25 10:41:04;;;;;;;3.03;1.90;;;;;;;;;;4974890;28;20507;-41
2023/05/25 10:43:31;;;;;;;2.05;1.77;;;;;;;;;;4984625;28;20041;-42
2023/05/25 10:45:56;;;;;;;1.60;1.50;;;;;;;;;;4985950;28;20049;-42
2023/05/25 10:48:22;;;;;;;3.08;2.15;;;;;;;;;;4983986;28;20380;-43
2023/05/25 10:50:51;;;;;;;1.70;1.60;;;;;;;;;;4985387;28;20039;-42
2023/05/25 10:53:22;;;;;;;6.57;2.15;;;;;;;;;;4984877;28;20035;-42
2023/05/25 10:55:51;;;;;;;2.80;1.95;;;;;;;;;;4979785;28;20042;-46
2023/05/25 10:58:17;;;;;;;8.05;2.20;;;;;;;;;;4982442;28;20042;-40
2023/05/25 11:00:57;;;;;;;5.00;2.17;;;;;;;;;;4983458;28;20272;-43
2023/05/25 11:03:42;;;;;;;3.45;1.75;;;;;;;;;;4982707;28;20193;-45
2023/05/25 11:06:09;;;;;;;2.88;1.83;;;;;;;;;;4982492;28;20118;-42
2023/05/25 11:08:53;;;;;;;2.35;1.63;;;;;;;;;;4987944;28;20035;-43
2023/05/25 11:11:19;;;;;;;6.63;2.25;;;;;;;;;;4985906;28;20045;-41
2023/05/25 11:13:48;;;;;;;2.10;1.90;;;;;;;;;;4978643;28;20035;-41
2023/05/25 11:16:23;;;;;;;4.78;2.00;;;;;;;;;;4980025;28;20096;-44
2023/05/25 11:18:52;;;;;;;3.08;2.28;;;;;;;;;;4977528;28;20096;-42
2023/05/25 11:21:22;;;;;;;1.98;1.70;;;;;;;;;;4982137;28;20069;-41
2023/05/25 11:24:01;;;;;;;2.70;2.03;;;;;;;;;;4984251;28;20034;-44
2023/05/25 11:26:32;;;;;;;4.60;2.05;;;;;;;;;;4985926;28;20121;-42
2023/05/25 11:28:59;;;;;;;2.00;1.65;;;;;;;;;;4983586;28;20027;-44
2023/05/25 11:31:29;;;;;;;2.50;2.30;;;;;;;;;;4980778;28;20042;-44
2023/05/25 11:33:59;;;;;;;2.97;2.03;;;;;;;;;;4981998;28;20054;-44
2023/05/25 11:36:26;;;;;;;2.78;2.00;;;;;;;;;;4984727;28;20549;-42
2023/05/25 11:38:52;;;;;;;4.93;1.90;;;;;;;;;;4985139;28;20030;-43
2023/05/25 11:41:19;;;;;;;2.65;2.38;;;;;;;;;;4980838;28;20046;-44
2023/05/25 11:43:45;;;;;;;3.95;1.98;;;;;;;;;;4984902;28;20061;-45
2023/05/25 11:46:11;;;;;;;8.25;3.75;;;;;;;;;;4984777;28;20038;-47
2023/05/25 11:48:41;;;;;;;3.50;2.50;;;;;;;;;;4981857;28;20478;-42
2023/05/25 11:51:07;;;;;;;3.20;2.10;;;;;;;;;;4979162;28;20031;-42
2023/05/25 11:53:32;;;;;;;7.72;2.70;;;;;;;;;;4985910;28;20124;-42
2023/05/25 11:55:58;;;;;;;2.50;2.30;;;;;;;;;;4979503;28;20070;-41
2023/05/25 11:58:23;;;;;;;3.70;2.47;;;;;;;;;;4981821;28;20057;-43
2023/05/25 12:00:48;;;;;;;11.43;2.58;;;;;;;;;;4980969;28;20042;-44
2023/05/25 12:03:30;;;;;;;4.15;2.60;;;;;;;;;;4983543;28;20038;-41
2023/05/25 12:05:56;;;;;;;5.47;2.88;;;;;;;;;;4982806;28;20042;-42
2023/05/25 12:08:35;;;;;;;5.18;2.58;;;;;;;;;;4984758;28;20092;-44
2023/05/25 12:11:01;;;;;;;2.97;2.50;;;;;;;;;;4983327;28;20547;-42
2023/05/25 12:13:27;;;;;;;3.97;2.63;;;;;;;;;;4978979;28;20051;-42
2023/05/25 12:15:59;;;;;;;2.80;2.42;;;;;;;;;;4981275;28;20078;-44
2023/05/25 12:18:27;;;;;;;3.53;2.67;;;;;;;;;;4981630;28;20031;-44
2023/05/25 12:20:53;;;;;;;4.28;2.67;;;;;;;;;;4984401;28;20046;-43
2023/05/25 12:23:19;;;;;;;3.25;2.40;;;;;;;;;;4983617;28;20085;-41
2023/05/25 12:25:44;;;;;;;3.10;2.60;;;;;;;;;;4980549;28;20042;-42
2023/05/25 12:28:11;;;;;;;4.10;2.35;;;;;;;;;;4982527;28;20043;-45
2023/05/25 12:30:36;;;;;;;3.88;2.60;;;;;;;;;;4977172;28;20098;-44
2023/05/25 12:33:02;;;;;;;2.20;1.98;;;;;;;;;;4984443;28;20054;-43
2023/05/25 12:35:28;;;;;;;2.33;2.13;;;;;;;;;;4988411;28;20507;-42
2023/05/25 12:38:09;;;;;;;2.53;2.00;;;;;;;;;;4981626;28;20395;-44
2023/05/25 12:40:34;;;;;;;2.43;2.23;;;;;;;;;;4979830;28;20038;-43
2023/05/25 12:43:00;;;;;;;3.83;2.50;;;;;;;;;;4985024;28;20033;-46
2023/05/25 12:45:25;;;;;;;2.85;2.60;;;;;;;;;;4982339;28;20502;-41
2023/05/25 12:47:51;;;;;;;4.70;2.38;;;;;;;;;;4985570;28;20468;-44
2023/05/25 12:50:18;;;;;;;2.38;2.17;;;;;;;;;;4982490;28;20026;-43
2023/05/25 12:52:45;;;;;;;2.65;2.38;;;;;;;;;;4977409;28;20043;-43
2023/05/25 12:55:26;;;;;;;2.47;2.28;;;;;;;;;;4980361;28;20031;-43
2023/05/25 12:57:56;;;;;;;2.92;2.10;;;;;;;;;;4979290;28;20484;-42
2023/05/25 13:00:25;;;;;;;4.25;2.20;;;;;;;;;;4984244;28;20038;-46
2023/05/25 13:02:52;;;;;;;2.85;2.25;;;;;;;;;;4984326;28;20034;-44
2023/05/25 13:05:25;;;;;;;2.80;2.05;;;;;;;;;;4986091;28;20026;-41
2023/05/25 13:07:53;;;;;;;6.90;2.13;;;;;;;;;;4981694;28;20141;-43
2023/05/25 13:10:19;;;;;;;4.18;2.35;;;;;;;;;;4984853;28;20121;-44
2023/05/25 13:12:48;;;;;;;2.10;2.00;;;;;;;;;;4984693;28;20188;-44
2023/05/25 13:15:17;;;;;;;2.30;2.10;;;;;;;;;;4985823;28;20368;-44
2023/05/25 13:17:43;;;;;;;2.35;2.20;;;;;;;;;;4977573;28;20083;-44
2023/05/25 13:20:15;;;;;;;2.28;2.08;;;;;;;;;;4987437;28;20034;-42
2023/05/25 13:22:42;;;;;;;2.70;1.83;;;;;;;;;;4985481;28;20196;-44
2023/05/25 13:25:08;;;;;;;5.32;2.40;;;;;;;;;;4986533;28;20022;-42
2023/05/25 13:27:36;;;;;;;2.67;2.25;;;;;;;;;;4986023;28;20041;-42
2023/05/25 13:30:06;;;;;;;2.97;2.40;;;;;;;;;;4982306;28;20027;-43
2023/05/25 13:32:31;;;;;;;4.20;2.45;;;;;;;;;;4986474;28;20035;-44
2023/05/25 13:34:58;;;;;;;2.75;2.40;;;;;;;;;;4990736;28;20053;-43
2023/05/25 13:37:26;;;;;;;5.10;2.65;;;;;;;;;;4985064;28;20062;-43
2023/05/25 13:39:52;;;;;;;3.25;2.83;;;;;;;;;;4982756;28;20022;-42
2023/05/25 13:42:17;;;;;;;3.28;2.45;;;;;;;;;;4987119;28;20051;-45
2023/05/25 13:44:42;;;;;;;2.90;2.42;;;;;;;;;;4985998;28;20110;-41
2023/05/25 13:47:08;;;;;;;2.63;2.42;;;;;;;;;;4984059;28;20034;-42
2023/05/25 13:49:33;;;;;;;3.95;2.78;;;;;;;;;;4981949;28;20069;-46
2023/05/25 13:51:59;;;;;;;5.03;2.80;;;;;;;;;;4985826;28;20043;-43
2023/05/25 13:54:24;;;;;;;5.72;2.60;;;;;;;;;;4987405;28;20034;-40
2023/05/25 13:56:50;;;;;;;4.72;2.45;;;;;;;;;;4985329;28;20035;-41
2023/05/25 13:59:15;;;;;;;5.80;2.53;;;;;;;;;;4984783;28;20045;-40
2023/05/25 14:01:40;;;;;;;4.13;2.67;;;;;;;;;;4985290;28;20038;-39
2023/05/25 14:04:06;;;;;;;3.33;2.72;;;;;;;;;;4988371;28;20088;-45
2023/05/25 14:06:33;;;;;;;5.15;2.95;;;;;;;;;;4980774;28;20494;-45
2023/05/25 14:08:58;;;;;;;5.68;2.92;;;;;;;;;;4986168;28;20038;-40
2023/05/25 14:11:25;;;;;;;3.85;3.20;;;;;;;;;;4978179;28;20042;-41
2023/05/25 14:13:50;;;;;;;8.65;3.15;;;;;;;;;;4981550;28;20031;-42
2023/05/25 14:16:16;;;;;;;3.85;2.90;;;;;;;;;;4981731;28;20062;-39
2023/05/25 14:18:41;;;;;;;3.88;3.05;;;;;;;;;;4981461;28;20475;-41
2023/05/25 14:21:06;;;;;;;3.65;3.10;;;;;;;;;;4984850;28;20077;-47
2023/05/25 14:23:32;;;;;;;5.90;3.25;;;;;;;;;;4986820;28;20034;-40
2023/05/25 14:25:57;;;;;;;7.20;3.15;;;;;;;;;;4981245;28;20111;-40
2023/05/25 14:28:22;;;;;;;3.45;3.00;;;;;;;;;;4984266;28;20136;-40
2023/05/25 14:30:48;;;;;;;3.53;3.00;;;;;;;;;;4986636;28;20038;-40
2023/05/25 14:33:14;;;;;;;7.72;3.25;;;;;;;;;;4983937;28;20030;-39
2023/05/25 14:35:41;;;;;;;4.40;3.30;;;;;;;;;;4988387;28;20137;-39
2023/05/25 14:38:07;;;;;;;8.27;3.03;;;;;;;;;;4982778;28;20057;-39
2023/05/25 14:40:32;;;;;;;4.28;3.60;;;;;;;;;;4981755;28;20108;-42
2023/05/25 14:42:58;;;;;;;7.72;3.50;;;;;;;;;;4985872;28;20076;-45